Caswell Beach, North Carolina
Current Conditions -  °F | °C
As of 8:15 AM on Thursday 23 Oct 2014 (Local Time) from KSUT Reporting Station
Clear Clear  
Wind Chill: 43°   Ceiling: Unl
Heat Index: 47°   Visibility: 10mi
Dew Point: 41°   Wind: 8mph
Humidity: 80%   Direction: 330°NNW
Pressure: 30.02"   Gusts: NA
Location:  33.9216°N, 78.1244°W
Report Text: KSUT 231215Z AUTO 33007KT 10SM CLR 09/05 A3002 RMK AO2 T00850052
Loading
Personal Weather Stations






























Interactive Weather Map
Tropical Storm Tracking
New forecast layout! Learn more

10-Day Weather Forecast

Advertisements
Track Severe Weather on mobile